sensor_id;sensor_type;location;lat;lon;timestamp;P1;durP1;ratioP1;P2;durP2;ratioP2
8113;SDS011;4099;52.684;9.918;2022-10-04T14:29:46;3.73;;;2.60;;
8113;SDS011;4099;52.684;9.918;2022-10-04T14:35:16;4.87;;;2.63;;
8113;SDS011;4099;52.684;9.918;2022-10-04T14:46:08;2.93;;;2.63;;
8113;SDS011;4099;52.684;9.918;2022-10-04T14:51:33;3.07;;;2.67;;
8113;SDS011;4099;52.684;9.918;2022-10-04T14:57:03;5.20;;;2.90;;
8113;SDS011;4099;52.684;9.918;2022-10-04T15:07:58;3.83;;;2.30;;
8113;SDS011;4099;52.684;9.918;2022-10-04T15:13:36;4.13;;;2.67;;
8113;SDS011;4099;52.684;9.918;2022-10-04T15:18:53;3.60;;;3.13;;
8113;SDS011;4099;52.684;9.918;2022-10-04T15:24:18;5.77;;;3.53;;
8113;SDS011;4099;52.684;9.918;2022-10-04T15:29:30;4.37;;;3.50;;
8113;SDS011;4099;52.684;9.918;2022-10-04T15:34:49;4.53;;;3.10;;
8113;SDS011;4099;52.684;9.918;2022-10-04T15:45:59;7.20;;;6.50;;
8113;SDS011;4099;52.684;9.918;2022-10-04T15:57:14;21.40;;;19.40;;
8113;SDS011;4099;52.684;9.918;2022-10-04T16:02:36;10.83;;;9.73;;
8113;SDS011;4099;52.684;9.918;2022-10-04T16:13:35;7.77;;;7.07;;
8113;SDS011;4099;52.684;9.918;2022-10-04T16:19:12;9.97;;;8.30;;
8113;SDS011;4099;52.684;9.918;2022-10-04T16:24:43;8.90;;;8.00;;
8113;SDS011;4099;52.684;9.918;2022-10-04T16:29:52;7.43;;;5.90;;
8113;SDS011;4099;52.684;9.918;2022-10-04T16:35:06;5.80;;;5.20;;
8113;SDS011;4099;52.684;9.918;2022-10-04T16:46:09;5.70;;;5.10;;
8113;SDS011;4099;52.684;9.918;2022-10-04T16:51:33;6.13;;;5.50;;
8113;SDS011;4099;52.684;9.918;2022-10-04T17:08:16;7.00;;;6.30;;
8113;SDS011;4099;52.684;9.918;2022-10-04T17:13:29;7.23;;;6.17;;
8113;SDS011;4099;52.684;9.918;2022-10-04T17:18:41;7.93;;;7.00;;
8113;SDS011;4099;52.684;9.918;2022-10-04T17:24:14;6.27;;;5.60;;
8113;SDS011;4099;52.684;9.918;2022-10-04T17:29:29;7.00;;;5.93;;
8113;SDS011;4099;52.684;9.918;2022-10-04T17:34:52;7.90;;;5.70;;
8113;SDS011;4099;52.684;9.918;2022-10-04T17:40:18;7.33;;;5.27;;
8113;SDS011;4099;52.684;9.918;2022-10-04T17:45:39;5.83;;;5.00;;
8113;SDS011;4099;52.684;9.918;2022-10-04T17:50:55;5.00;;;4.37;;
8113;SDS011;4099;52.684;9.918;2022-10-04T17:56:24;5.10;;;4.50;;
8113;SDS011;4099;52.684;9.918;2022-10-04T18:01:34;5.83;;;5.23;;
8113;SDS011;4099;52.684;9.918;2022-10-04T18:06:47;10.47;;;7.63;;
8113;SDS011;4099;52.684;9.918;2022-10-04T18:12:00;17.23;;;11.07;;
8113;SDS011;4099;52.684;9.918;2022-10-04T18:17:12;56.73;;;40.23;;
8113;SDS011;4099;52.684;9.918;2022-10-04T18:22:30;106.67;;;74.73;;
8113;SDS011;4099;52.684;9.918;2022-10-04T18:27:48;61.57;;;44.83;;
8113;SDS011;4099;52.684;9.918;2022-10-04T18:32:56;31.40;;;24.77;;
8113;SDS011;4099;52.684;9.918;2022-10-04T18:38:14;18.03;;;15.83;;
8113;SDS011;4099;52.684;9.918;2022-10-04T18:43:29;17.00;;;14.00;;
8113;SDS011;4099;52.684;9.918;2022-10-04T18:48:41;15.47;;;13.90;;
8113;SDS011;4099;52.684;9.918;2022-10-04T18:54:01;15.57;;;12.83;;
8113;SDS011;4099;52.684;9.918;2022-10-04T18:59:16;15.23;;;13.13;;
8113;SDS011;4099;52.684;9.918;2022-10-04T19:04:54;15.00;;;13.37;;
8113;SDS011;4099;52.684;9.918;2022-10-04T19:10:12;14.90;;;13.07;;
8113;SDS011;4099;52.684;9.918;2022-10-04T19:15:26;15.00;;;13.43;;
8113;SDS011;4099;52.684;9.918;2022-10-04T19:20:46;22.10;;;19.13;;
8113;SDS011;4099;52.684;9.918;2022-10-04T19:25:56;27.20;;;21.57;;
8113;SDS011;4099;52.684;9.918;2022-10-04T19:31:06;24.17;;;20.37;;
8113;SDS011;4099;52.684;9.918;2022-10-04T19:36:31;19.90;;;17.60;;
8113;SDS011;4099;52.684;9.918;2022-10-04T19:41:47;16.77;;;14.13;;
8113;SDS011;4099;52.684;9.918;2022-10-04T19:46:58;19.70;;;15.93;;
8113;SDS011;4099;52.684;9.918;2022-10-04T19:52:17;18.93;;;16.17;;
8113;SDS011;4099;52.684;9.918;2022-10-04T19:57:34;15.77;;;13.60;;
8113;SDS011;4099;52.684;9.918;2022-10-04T20:02:39;15.97;;;13.47;;
8113;SDS011;4099;52.684;9.918;2022-10-04T20:07:48;16.10;;;12.03;;
8113;SDS011;4099;52.684;9.918;2022-10-04T20:13:04;12.37;;;11.03;;
8113;SDS011;4099;52.684;9.918;2022-10-04T20:23:59;11.20;;;9.23;;
8113;SDS011;4099;52.684;9.918;2022-10-04T20:29:02;11.13;;;8.57;;
8113;SDS011;4099;52.684;9.918;2022-10-04T20:45:46;8.50;;;7.43;;
8113;SDS011;4099;52.684;9.918;2022-10-04T20:50:51;10.73;;;8.47;;
8113;SDS011;4099;52.684;9.918;2022-10-04T20:56:18;11.10;;;9.00;;
8113;SDS011;4099;52.684;9.918;2022-10-04T21:01:28;13.50;;;9.50;;
8113;SDS011;4099;52.684;9.918;2022-10-04T21:06:50;10.63;;;9.07;;
8113;SDS011;4099;52.684;9.918;2022-10-04T21:12:00;16.67;;;12.37;;
8113;SDS011;4099;52.684;9.918;2022-10-04T21:22:35;15.40;;;8.80;;
8113;SDS011;4099;52.684;9.918;2022-10-04T21:27:46;11.30;;;8.47;;
8113;SDS011;4099;52.684;9.918;2022-10-04T21:32:49;11.50;;;7.57;;
8113;SDS011;4099;52.684;9.918;2022-10-04T21:37:55;8.30;;;7.10;;
8113;SDS011;4099;52.684;9.918;2022-10-04T21:43:01;8.80;;;7.03;;
8113;SDS011;4099;52.684;9.918;2022-10-04T21:48:04;10.90;;;7.30;;
8113;SDS011;4099;52.684;9.918;2022-10-04T21:53:07;9.87;;;7.67;;
8113;SDS011;4099;52.684;9.918;2022-10-04T21:58:17;10.73;;;7.27;;
8113;SDS011;4099;52.684;9.918;2022-10-04T22:03:20;9.73;;;7.40;;
8113;SDS011;4099;52.684;9.918;2022-10-04T22:08:25;8.57;;;7.03;;
8113;SDS011;4099;52.684;9.918;2022-10-04T22:13:33;8.50;;;7.60;;
8113;SDS011;4099;52.684;9.918;2022-10-04T22:18:37;9.13;;;7.10;;
8113;SDS011;4099;52.684;9.918;2022-10-04T22:23:44;9.77;;;7.23;;
8113;SDS011;4099;52.684;9.918;2022-10-04T22:28:49;9.73;;;6.33;;
8113;SDS011;4099;52.684;9.918;2022-10-04T22:33:53;9.20;;;6.53;;
8113;SDS011;4099;52.684;9.918;2022-10-04T22:39:01;6.57;;;5.77;;
8113;SDS011;4099;52.684;9.918;2022-10-04T22:44:15;8.70;;;5.50;;
8113;SDS011;4099;52.684;9.918;2022-10-04T22:49:21;10.43;;;6.10;;
8113;SDS011;4099;52.684;9.918;2022-10-04T22:54:32;6.93;;;5.50;;
8113;SDS011;4099;52.684;9.918;2022-10-04T22:59:49;8.17;;;5.97;;
8113;SDS011;4099;52.684;9.918;2022-10-04T23:04:56;8.00;;;5.57;;
8113;SDS011;4099;52.684;9.918;2022-10-04T23:10:02;8.43;;;5.83;;
8113;SDS011;4099;52.684;9.918;2022-10-04T23:15:12;6.10;;;5.50;;
8113;SDS011;4099;52.684;9.918;2022-10-04T23:20:18;5.83;;;5.07;;
8113;SDS011;4099;52.684;9.918;2022-10-04T23:25:22;7.53;;;5.17;;
8113;SDS011;4099;52.684;9.918;2022-10-04T23:30:29;6.67;;;5.50;;
8113;SDS011;4099;52.684;9.918;2022-10-04T23:35:32;7.93;;;5.10;;
8113;SDS011;4099;52.684;9.918;2022-10-04T23:40:39;5.93;;;4.63;;
8113;SDS011;4099;52.684;9.918;2022-10-04T23:45:45;5.87;;;4.90;;
8113;SDS011;4099;52.684;9.918;2022-10-04T23:50:48;8.00;;;5.00;;
8113;SDS011;4099;52.684;9.918;2022-10-04T23:55:52;8.37;;;5.07;;
